Terminal Aerodrome Forecast
Issued by NWS Chicago, IL

Home | Current Version | Previous Version | Text Only | Print | Product List | Glossary Off
Versions: 1 2 3 4 5 6 7 8 9 10 11 12 13 14 15 16 17 18 19 20 21 22 23 24 25

341
FTUS43 KLOT 110253 AAA
TAFRFD
TAF AMD
KRFD 110253Z 1103/1124 34005KT P6SM SCT120 BKN250
     FM112100 26005KT P6SM SCT250=

USA.gov is the U.S. government's official web portal to all federal, state and local government web resources and services.